createdAt,value
2022-09-28T00:02:09.632Z,11.05
2022-09-28T00:05:13.172Z,11.08
2022-09-28T00:08:17.475Z,11.07
2022-09-28T00:11:22.037Z,11.08
2022-09-28T00:14:25.213Z,11.13
2022-09-28T00:17:28.254Z,11.10
2022-09-28T00:20:31.238Z,11.12
2022-09-28T00:23:56.777Z,11.08
2022-09-28T00:27:01.648Z,11.08
2022-09-28T00:30:05.069Z,11.07
2022-09-28T00:33:07.996Z,11.08
2022-09-28T00:36:10.652Z,11.05
2022-09-28T00:39:16.873Z,10.96
2022-09-28T00:42:21.129Z,11.03
2022-09-28T00:45:26.756Z,11.03
2022-09-28T00:48:33.991Z,10.98
2022-09-28T00:51:39.342Z,10.96
2022-09-28T00:54:46.925Z,10.94
2022-09-28T00:57:55.553Z,10.94
2022-09-28T01:01:00.042Z,10.88
2022-09-28T01:04:05.229Z,10.84
2022-09-28T01:07:10.116Z,10.78
2022-09-28T01:10:15.487Z,10.78
2022-09-28T01:13:19.827Z,10.77
2022-09-28T01:16:32.358Z,10.77
2022-09-28T01:20:07.806Z,10.78
2022-09-28T01:23:30.368Z,10.77
2022-09-28T01:26:47.998Z,10.75
2022-09-28T01:29:58.038Z,10.75
2022-09-28T01:33:07.331Z,10.77
2022-09-28T01:36:14.878Z,10.79
2022-09-28T01:39:22.834Z,10.77
2022-09-28T01:42:32.436Z,10.72
2022-09-28T01:45:42.962Z,10.68
2022-09-28T01:48:52.049Z,10.66
2022-09-28T01:52:02.439Z,10.67
2022-09-28T01:55:11.703Z,10.66
2022-09-28T01:58:20.265Z,10.67
2022-09-28T02:01:28.205Z,10.61
2022-09-28T02:04:36.068Z,10.60
2022-09-28T02:07:42.800Z,10.59
2022-09-28T02:10:52.807Z,10.55
2022-09-28T02:14:02.003Z,10.54
2022-09-28T02:17:05.498Z,10.45
2022-09-28T02:20:10.290Z,10.44
2022-09-28T02:23:13.085Z,10.48
2022-09-28T02:26:20.221Z,10.51
2022-09-28T02:29:25.002Z,10.55
2022-09-28T02:32:29.838Z,10.56
2022-09-28T02:35:35.361Z,10.58
2022-09-28T02:38:39.297Z,10.59
2022-09-28T02:41:55.867Z,10.60
2022-09-28T02:45:13.843Z,10.63
2022-09-28T02:48:42.761Z,10.63
2022-09-28T02:51:57.463Z,10.62
2022-09-28T02:55:25.158Z,10.61
2022-09-28T02:58:41.335Z,10.62
2022-09-28T03:01:59.468Z,10.61
2022-09-28T03:05:15.208Z,10.55
2022-09-28T03:08:24.665Z,10.61
2022-09-28T03:11:33.505Z,10.60
2022-09-28T03:14:36.770Z,10.61
2022-09-28T03:17:41.485Z,10.60
2022-09-28T03:20:44.501Z,10.61
2022-09-28T03:23:48.411Z,10.63
2022-09-28T03:26:51.099Z,10.61
2022-09-28T03:29:53.768Z,10.61
2022-09-28T03:33:02.479Z,10.62
2022-09-28T03:36:05.555Z,10.67
2022-09-28T03:39:08.564Z,10.70
2022-09-28T03:42:11.305Z,10.73
2022-09-28T03:45:14.472Z,10.76
2022-09-28T03:48:23.171Z,10.73
2022-09-28T03:51:27.460Z,10.74
2022-09-28T03:54:30.252Z,10.76
2022-09-28T03:57:33.425Z,10.79
2022-09-28T04:00:36.439Z,10.81
2022-09-28T04:03:40.792Z,10.84
2022-09-28T04:06:43.789Z,10.84
2022-09-28T04:09:46.429Z,10.86
2022-09-28T04:12:50.270Z,10.86
2022-09-28T04:15:54.519Z,10.86
2022-09-28T04:18:59.446Z,10.92
2022-09-28T04:22:02.666Z,10.89
2022-09-28T04:25:06.013Z,10.75
2022-09-28T04:28:27.731Z,10.73
2022-09-28T04:31:30.815Z,10.77
2022-09-28T04:34:37.869Z,10.82
2022-09-28T04:37:42.821Z,10.85
2022-09-28T04:40:45.881Z,10.83
2022-09-28T04:43:49.000Z,10.79
2022-09-28T04:46:52.123Z,10.87
2022-09-28T04:49:56.101Z,10.67
2022-09-28T04:52:59.097Z,10.49
2022-09-28T04:56:04.142Z,10.48
2022-09-28T04:59:07.047Z,10.41
2022-09-28T05:02:09.754Z,10.35
2022-09-28T05:05:14.017Z,10.14
2022-09-28T05:08:17.075Z,10.09
2022-09-28T05:11:21.352Z,10.15
2022-09-28T05:14:24.866Z,10.16
2022-09-28T05:17:27.542Z,10.18
2022-09-28T05:20:32.685Z,10.19
2022-09-28T05:23:35.342Z,10.19
2022-09-28T05:26:38.078Z,10.15
2022-09-28T05:29:40.750Z,10.15
2022-09-28T05:32:44.620Z,10.23
2022-09-28T05:35:53.354Z,10.23
2022-09-28T05:38:57.728Z,10.23
2022-09-28T05:42:00.359Z,10.25
2022-09-28T05:45:04.740Z,10.27
2022-09-28T05:48:07.468Z,10.24
2022-09-28T05:51:12.423Z,10.31
2022-09-28T05:54:15.533Z,10.23
2022-09-28T05:57:18.740Z,10.20
2022-09-28T06:00:21.390Z,10.15
2022-09-28T06:03:25.178Z,10.08
2022-09-28T06:06:29.170Z,10.15
2022-09-28T06:09:32.273Z,10.20
2022-09-28T06:12:35.595Z,10.26
2022-09-28T06:15:39.067Z,10.25
2022-09-28T06:18:42.905Z,10.40
2022-09-28T06:21:48.333Z,10.45
2022-09-28T06:24:51.386Z,10.53
2022-09-28T06:27:58.740Z,10.41
2022-09-28T06:31:02.536Z,10.48
2022-09-28T06:34:06.003Z,10.74
2022-09-28T06:37:09.994Z,10.89
2022-09-28T06:40:12.800Z,11.05
2022-09-28T06:43:16.529Z,11.14
2022-09-28T06:46:20.839Z,11.19
2022-09-28T06:49:23.860Z,11.25
2022-09-28T06:52:28.233Z,11.38
2022-09-28T06:55:31.563Z,11.40
2022-09-28T06:58:34.655Z,11.38
2022-09-28T07:01:37.687Z,11.25
2022-09-28T07:04:42.132Z,11.12
2022-09-28T07:07:46.164Z,11.05
2022-09-28T07:10:56.275Z,10.95
2022-09-28T07:13:59.053Z,10.94
2022-09-28T07:17:13.285Z,10.85
2022-09-28T07:20:19.426Z,10.82
2022-09-28T07:23:24.268Z,10.83
2022-09-28T07:26:26.960Z,10.88
2022-09-28T07:29:29.623Z,10.86
2022-09-28T07:32:34.883Z,10.89
2022-09-28T07:35:37.558Z,10.99
2022-09-28T07:38:41.802Z,11.02
2022-09-28T07:41:44.879Z,11.12
2022-09-28T07:44:47.739Z,11.19
2022-09-28T07:47:50.951Z,11.22
2022-09-28T07:50:56.765Z,11.26
2022-09-28T07:54:01.598Z,11.30
2022-09-28T07:57:04.270Z,11.45
2022-09-28T08:00:09.042Z,11.55
2022-09-28T08:03:11.711Z,11.71
2022-09-28T08:06:17.070Z,11.94
2022-09-28T08:09:21.248Z,12.09
2022-09-28T08:12:23.928Z,12.23
2022-09-28T08:15:27.580Z,12.30
2022-09-28T08:18:30.488Z,12.42
2022-09-28T08:21:47.739Z,12.46
2022-09-28T08:24:51.772Z,12.64
2022-09-28T08:27:56.816Z,12.83
2022-09-28T08:31:01.978Z,12.70
2022-09-28T08:34:05.268Z,12.70
2022-09-28T08:37:09.510Z,12.70
2022-09-28T08:40:19.921Z,12.69
2022-09-28T08:43:39.651Z,12.66
2022-09-28T08:46:46.809Z,12.86
2022-09-28T08:49:51.018Z,12.82
2022-09-28T08:52:58.408Z,12.81
2022-09-28T08:56:07.158Z,12.85
2022-09-28T08:59:14.302Z,12.98
2022-09-28T09:02:22.327Z,13.04
2022-09-28T09:05:43.772Z,13.12
2022-09-28T09:09:00.092Z,13.15
2022-09-28T09:12:11.799Z,13.18
2022-09-28T09:15:30.210Z,13.28
2022-09-28T09:18:38.505Z,13.31
2022-09-28T09:21:42.868Z,13.48
2022-09-28T09:24:51.585Z,13.38
2022-09-28T09:28:09.455Z,13.33
2022-09-28T09:31:27.139Z,13.46
2022-09-28T09:35:00.144Z,13.23
2022-09-28T09:38:16.204Z,13.13
2022-09-28T09:41:33.730Z,13.01
2022-09-28T09:44:55.078Z,12.87
2022-09-28T09:48:01.690Z,12.89
2022-09-28T09:51:14.041Z,12.89
2022-09-28T09:54:25.485Z,13.05
2022-09-28T09:57:33.223Z,13.44
2022-09-28T10:00:40.890Z,13.47
2022-09-28T10:03:46.393Z,13.56
2022-09-28T10:06:52.672Z,13.77
2022-09-28T10:09:59.257Z,13.84
2022-09-28T10:13:02.703Z,13.86
2022-09-28T10:16:08.071Z,13.86
2022-09-28T10:19:13.451Z,13.94
2022-09-28T10:22:21.774Z,14.05
2022-09-28T10:25:25.263Z,13.91
2022-09-28T10:28:36.667Z,13.98
2022-09-28T10:31:43.052Z,13.93
2022-09-28T10:34:50.185Z,13.85
2022-09-28T10:37:59.388Z,13.70
2022-09-28T10:41:10.331Z,13.58
2022-09-28T10:44:18.888Z,13.56
2022-09-28T10:47:25.263Z,13.70
2022-09-28T10:50:29.485Z,14.01
2022-09-28T10:53:32.456Z,14.40
2022-09-28T10:56:38.498Z,14.65
2022-09-28T10:59:43.080Z,14.75
2022-09-28T11:02:47.396Z,15.05
2022-09-28T11:05:58.896Z,15.28
2022-09-28T11:09:04.606Z,15.46
2022-09-28T11:12:14.782Z,15.44
2022-09-28T11:15:20.247Z,15.37
2022-09-28T11:18:29.625Z,15.15
2022-09-28T11:21:43.302Z,14.87
2022-09-28T11:24:45.991Z,14.81
2022-09-28T11:27:58.210Z,14.64
2022-09-28T11:31:02.586Z,14.34
2022-09-28T11:34:15.888Z,14.62
2022-09-28T11:37:40.229Z,14.80
2022-09-28T11:40:55.447Z,15.15
2022-09-28T11:44:12.997Z,15.44
2022-09-28T11:47:34.501Z,15.71
2022-09-28T11:50:47.774Z,15.79
2022-09-28T11:53:53.771Z,15.80
2022-09-28T11:57:00.874Z,15.82
2022-09-28T12:00:08.391Z,15.83
2022-09-28T12:03:16.161Z,15.84
2022-09-28T12:06:26.267Z,15.79
2022-09-28T12:09:40.169Z,15.84
2022-09-28T12:12:49.040Z,15.84
2022-09-28T12:16:38.464Z,16.11
2022-09-28T12:19:25.899Z,16.15
2022-09-28T12:22:36.452Z,16.13
2022-09-28T12:25:46.207Z,16.08
2022-09-28T12:28:51.443Z,15.98
2022-09-28T12:32:02.720Z,15.70
2022-09-28T12:35:12.824Z,15.34
2022-09-28T12:38:39.816Z,15.27
2022-09-28T12:41:55.981Z,15.07
2022-09-28T12:45:18.920Z,15.06
2022-09-28T12:49:03.033Z,15.22
2022-09-28T12:52:27.957Z,15.12
2022-09-28T12:55:52.169Z,15.21
2022-09-28T12:59:07.550Z,15.22
2022-09-28T13:02:38.432Z,15.37
2022-09-28T13:06:09.805Z,15.47
2022-09-28T13:09:20.515Z,15.52
2022-09-28T13:12:35.921Z,15.71
2022-09-28T13:15:49.036Z,15.57
2022-09-28T13:19:01.721Z,15.76
2022-09-28T13:22:26.088Z,15.88
2022-09-28T13:25:32.604Z,15.88
2022-09-28T13:28:38.325Z,15.73
2022-09-28T13:31:45.713Z,15.51
2022-09-28T13:34:51.281Z,15.39
2022-09-28T13:38:27.196Z,15.33
2022-09-28T13:41:32.442Z,15.37
2022-09-28T13:44:55.137Z,15.44
2022-09-28T13:48:14.704Z,15.51
2022-09-28T13:51:32.109Z,15.57
2022-09-28T13:54:54.601Z,15.77
2022-09-28T13:58:01.620Z,15.71
2022-09-28T14:01:11.461Z,15.67
2022-09-28T14:04:19.453Z,15.68
2022-09-28T14:07:25.572Z,15.78
2022-09-28T14:10:52.001Z,15.84
2022-09-28T14:14:07.225Z,15.88
2022-09-28T14:17:54.687Z,15.86
2022-09-28T14:21:36.044Z,15.89
2022-09-28T14:25:04.395Z,15.96
2022-09-28T14:28:26.950Z,16.14
2022-09-28T14:31:31.198Z,16.04
2022-09-28T14:34:36.477Z,16.08
2022-09-28T14:38:00.759Z,16.14
2022-09-28T14:41:12.808Z,16.16
2022-09-28T14:44:17.277Z,16.08
2022-09-28T14:47:35.180Z,16.07
2022-09-28T14:50:39.005Z,16.22
2022-09-28T14:53:43.331Z,16.27
2022-09-28T14:56:57.053Z,16.26
2022-09-28T15:00:01.011Z,16.40
2022-09-28T15:03:11.416Z,16.61
2022-09-28T15:06:16.856Z,16.52
2022-09-28T15:09:29.298Z,16.41
2022-09-28T15:12:32.486Z,16.32
2022-09-28T15:15:38.591Z,16.20
2022-09-28T15:19:04.104Z,15.77
2022-09-28T15:22:15.855Z,15.60
2022-09-28T15:25:21.832Z,15.52
2022-09-28T15:28:25.301Z,15.34
2022-09-28T15:31:31.844Z,15.21
2022-09-28T15:34:54.724Z,15.07
2022-09-28T15:37:57.768Z,14.94
2022-09-28T15:41:04.653Z,15.01
2022-09-28T15:44:32.967Z,15.05
2022-09-28T15:47:40.082Z,15.21
2022-09-28T15:50:58.042Z,15.31
2022-09-28T15:54:04.313Z,15.37
2022-09-28T15:57:30.012Z,15.33
2022-09-28T16:00:33.305Z,15.21
2022-09-28T16:03:35.945Z,15.09
2022-09-28T16:06:38.629Z,14.95
2022-09-28T16:09:55.663Z,14.78
2022-09-28T16:13:15.707Z,14.68
2022-09-28T16:16:18.607Z,14.51
2022-09-28T16:19:25.348Z,14.37
2022-09-28T16:22:28.987Z,14.22
2022-09-28T16:25:31.789Z,14.08
2022-09-28T16:28:52.876Z,13.91
2022-09-28T16:31:55.698Z,13.83
2022-09-28T16:35:23.065Z,13.62
2022-09-28T16:38:25.752Z,13.43
2022-09-28T16:41:30.292Z,13.22
2022-09-28T16:44:35.834Z,13.09
2022-09-28T16:47:39.502Z,12.88
2022-09-28T16:50:42.134Z,12.72
2022-09-28T16:54:02.913Z,12.58
2022-09-28T16:57:07.542Z,12.46
2022-09-28T17:00:19.638Z,12.37
2022-09-28T17:03:23.438Z,12.31
2022-09-28T17:06:27.470Z,12.18
2022-09-28T17:09:30.136Z,12.08
2022-09-28T17:12:32.813Z,12.00
2022-09-28T17:15:37.542Z,11.92
2022-09-28T17:18:40.505Z,11.87
2022-09-28T17:21:43.187Z,11.78
2022-09-28T17:24:46.738Z,11.73
2022-09-28T17:27:50.461Z,11.66
2022-09-28T17:30:55.050Z,11.57
2022-09-28T17:33:58.464Z,11.48
2022-09-28T17:37:01.288Z,11.42
2022-09-28T17:40:13.708Z,11.31
2022-09-28T17:43:16.346Z,11.20
2022-09-28T17:46:28.470Z,11.12
2022-09-28T17:49:31.165Z,11.07
2022-09-28T17:52:33.887Z,10.99
2022-09-28T17:55:38.280Z,10.89
2022-09-28T17:58:41.927Z,10.82
2022-09-28T18:01:48.643Z,10.73
2022-09-28T18:04:52.768Z,10.67
2022-09-28T18:07:58.942Z,10.50
2022-09-28T18:11:03.471Z,10.38
2022-09-28T18:14:11.070Z,10.50
2022-09-28T18:17:21.796Z,10.42
2022-09-28T18:20:25.151Z,10.18
2022-09-28T18:23:31.681Z,10.28
2022-09-28T18:26:35.138Z,10.24
2022-09-28T18:29:38.121Z,10.17
2022-09-28T18:32:42.451Z,10.13
2022-09-28T18:36:10.992Z,10.06
2022-09-28T18:39:14.421Z,9.97
2022-09-28T18:42:17.132Z,9.99
2022-09-28T18:45:20.089Z,9.97
2022-09-28T18:48:27.692Z,9.92
2022-09-28T18:51:30.569Z,9.84
2022-09-28T18:54:33.452Z,9.80
2022-09-28T18:57:36.903Z,9.74
2022-09-28T19:00:40.466Z,9.67
2022-09-28T19:03:44.813Z,9.58
2022-09-28T19:06:51.742Z,9.52
2022-09-28T19:09:54.489Z,9.49
2022-09-28T19:12:57.420Z,9.46
2022-09-28T19:16:00.525Z,9.42
2022-09-28T19:19:06.619Z,9.37
2022-09-28T19:22:09.758Z,9.33
2022-09-28T19:25:13.612Z,9.30
2022-09-28T19:28:16.301Z,9.26
2022-09-28T19:31:19.349Z,9.18
2022-09-28T19:34:24.360Z,9.16
2022-09-28T19:37:27.202Z,9.13
2022-09-28T19:40:30.153Z,9.10
2022-09-28T19:43:34.940Z,9.06
2022-09-28T19:46:40.416Z,9.08
2022-09-28T19:49:44.992Z,9.10
2022-09-28T19:52:47.794Z,9.13
2022-09-28T19:55:52.773Z,9.15
2022-09-28T19:58:55.556Z,9.21
2022-09-28T20:02:01.315Z,9.28
2022-09-28T20:05:06.346Z,9.32
2022-09-28T20:08:09.742Z,9.27
2022-09-28T20:11:13.168Z,9.33
2022-09-28T20:14:16.173Z,9.28
2022-09-28T20:17:19.261Z,9.30
2022-09-28T20:20:23.426Z,9.33
2022-09-28T20:23:27.303Z,9.26
2022-09-28T20:26:30.454Z,9.16
2022-09-28T20:29:33.748Z,9.04
2022-09-28T20:32:36.978Z,8.92
2022-09-28T20:35:44.228Z,8.95
2022-09-28T20:38:48.717Z,8.90
2022-09-28T20:41:51.715Z,8.84
2022-09-28T20:44:54.466Z,8.84
2022-09-28T20:47:57.179Z,8.98
2022-09-28T20:51:03.156Z,9.01
2022-09-28T20:54:06.389Z,9.07
2022-09-28T20:57:17.548Z,9.14
2022-09-28T21:00:20.495Z,9.17
2022-09-28T21:03:23.559Z,9.18
2022-09-28T21:06:29.451Z,9.20
2022-09-28T21:09:33.319Z,9.25
2022-09-28T21:12:37.149Z,9.22
2022-09-28T21:15:39.882Z,9.31
2022-09-28T21:18:43.639Z,9.35
2022-09-28T21:21:48.423Z,9.16
2022-09-28T21:24:51.474Z,9.22
2022-09-28T21:27:54.497Z,9.26
2022-09-28T21:30:57.502Z,9.21
2022-09-28T21:34:00.508Z,9.17
2022-09-28T21:37:04.853Z,9.11
2022-09-28T21:40:10.146Z,9.04
2022-09-28T21:43:13.131Z,8.98
2022-09-28T21:46:15.970Z,9.07
2022-09-28T21:49:18.712Z,9.04
2022-09-28T21:52:23.029Z,9.00
2022-09-28T21:55:26.133Z,8.98
2022-09-28T21:58:31.049Z,8.96
2022-09-28T22:01:34.132Z,8.97
2022-09-28T22:04:36.872Z,8.89
2022-09-28T22:07:42.654Z,8.91
2022-09-28T22:10:45.509Z,8.84
2022-09-28T22:13:50.339Z,8.84
2022-09-28T22:16:53.206Z,8.79
2022-09-28T22:19:56.242Z,8.72
2022-09-28T22:23:00.623Z,8.71
2022-09-28T22:26:08.291Z,8.74
2022-09-28T22:29:11.815Z,8.67
2022-09-28T22:32:14.549Z,8.62
2022-09-28T22:35:17.654Z,8.61
2022-09-28T22:38:24.061Z,8.57
2022-09-28T22:41:27.233Z,8.61
2022-09-28T22:44:30.104Z,8.55
2022-09-28T22:47:32.865Z,8.43
2022-09-28T22:50:35.961Z,8.32
2022-09-28T22:53:40.200Z,8.33
2022-09-28T22:56:44.556Z,8.33
2022-09-28T22:59:47.717Z,8.17
2022-09-28T23:02:50.447Z,8.17
2022-09-28T23:05:54.349Z,8.03
2022-09-28T23:08:58.549Z,8.03
2022-09-28T23:12:01.584Z,8.07
2022-09-28T23:15:04.719Z,7.99
2022-09-28T23:18:08.427Z,7.92
2022-09-28T23:21:15.112Z,7.93
2022-09-28T23:24:19.412Z,7.95
2022-09-28T23:27:22.103Z,7.96
2022-09-28T23:30:25.224Z,7.94
2022-09-28T23:33:28.009Z,7.98
2022-09-28T23:36:31.474Z,7.95
2022-09-28T23:39:35.464Z,7.89
2022-09-28T23:42:38.202Z,7.99
2022-09-28T23:45:42.323Z,7.92
2022-09-28T23:48:44.994Z,7.94
2022-09-28T23:51:48.130Z,7.90
2022-09-28T23:54:52.157Z,7.85
2022-09-28T23:57:56.959Z,7.79
